createdAt,value
2017-03-07T00:00:11.592Z,992.18
2017-03-07T00:00:38.081Z,992.12
2017-03-07T00:00:59.811Z,992.13
2017-03-07T00:01:21.515Z,992.15
2017-03-07T00:01:43.228Z,992.19
2017-03-07T00:02:04.951Z,992.15
2017-03-07T00:02:26.705Z,992.14
2017-03-07T00:02:53.188Z,992.14
2017-03-07T00:03:14.885Z,992.12
2017-03-07T00:04:07.857Z,992.19
2017-03-07T00:05:00.914Z,992.18
2017-03-07T00:06:08.189Z,992.16
2017-03-07T00:06:29.885Z,992.24
2017-03-07T00:06:56.382Z,992.18
2017-03-07T00:07:18.090Z,992.14
2017-03-07T00:07:39.767Z,992.22
2017-03-07T00:08:32.727Z,992.23
2017-03-07T00:09:25.810Z,992.25
2017-03-07T00:09:47.513Z,992.27
2017-03-07T00:10:09.220Z,992.30
2017-03-07T00:10:30.922Z,992.27
2017-03-07T00:11:33.991Z,992.23
2017-03-07T00:11:55.684Z,992.28
2017-03-07T00:12:48.671Z,992.32
2017-03-07T00:13:15.252Z,992.29
2017-03-07T00:13:36.958Z,992.32
2017-03-07T00:14:03.444Z,992.36
2017-03-07T00:14:25.140Z,992.36
2017-03-07T00:14:46.945Z,992.34
2017-03-07T00:15:13.427Z,992.34
2017-03-07T00:15:35.137Z,992.39
2017-03-07T00:16:42.426Z,992.38
2017-03-07T00:17:04.138Z,992.38
2017-03-07T00:17:25.856Z,992.38
2017-03-07T00:17:52.334Z,992.47
2017-03-07T00:18:14.033Z,992.37
2017-03-07T00:19:17.088Z,992.46
2017-03-07T00:19:38.880Z,992.42
2017-03-07T00:20:05.375Z,992.39
2017-03-07T00:20:27.074Z,992.41
2017-03-07T00:20:48.791Z,992.38
2017-03-07T00:21:10.498Z,992.44
2017-03-07T00:21:32.192Z,992.42
2017-03-07T00:21:53.988Z,992.43
2017-03-07T00:22:20.468Z,992.44
2017-03-07T00:22:42.179Z,992.42
2017-03-07T00:23:45.238Z,992.37
2017-03-07T00:24:06.951Z,992.44
2017-03-07T00:24:28.775Z,992.43
2017-03-07T00:25:21.728Z,992.38
2017-03-07T00:26:14.778Z,992.44
2017-03-07T00:27:07.751Z,992.44
2017-03-07T00:27:29.604Z,992.44
2017-03-07T00:27:56.115Z,992.57
2017-03-07T00:28:17.850Z,992.56
2017-03-07T00:28:39.755Z,992.52
2017-03-07T00:29:06.237Z,992.55
2017-03-07T00:29:28.101Z,992.51
2017-03-07T00:29:49.803Z,992.47
2017-03-07T00:30:16.369Z,992.55
2017-03-07T00:30:38.118Z,992.53
2017-03-07T00:30:59.813Z,992.53
2017-03-07T00:31:26.362Z,992.49
2017-03-07T00:34:11.684Z,992.58
2017-03-07T00:36:02.932Z,992.54
2017-03-07T00:36:28.426Z,992.58
2017-03-07T00:37:23.413Z,992.67
2017-03-07T00:37:57.785Z,992.65
2017-03-07T00:40:26.583Z,992.63
2017-03-07T00:45:24.342Z,992.66
2017-03-07T00:45:53.896Z,992.62
2017-03-07T00:48:00.236Z,992.69
2017-03-07T00:48:31.736Z,992.66
2017-03-07T00:49:03.218Z,992.66
2017-03-07T00:49:29.764Z,992.68
2017-03-07T00:49:53.637Z,992.66
2017-03-07T00:51:23.639Z,992.77
2017-03-07T00:52:15.057Z,992.75
2017-03-07T00:53:10.950Z,992.74
2017-03-07T00:54:09.272Z,992.79
2017-03-07T00:54:34.404Z,992.78
2017-03-07T00:55:05.983Z,992.76
2017-03-07T00:56:07.338Z,992.77
2017-03-07T00:57:29.888Z,992.85
2017-03-07T00:58:04.174Z,992.86
2017-03-07T00:58:38.222Z,992.88
2017-03-07T00:59:03.134Z,992.90
2017-03-07T01:00:09.498Z,992.95
2017-03-07T01:01:35.782Z,992.93
2017-03-07T01:02:09.905Z,992.96
2017-03-07T01:03:11.144Z,992.90
2017-03-07T01:04:24.990Z,992.97
2017-03-07T01:05:32.540Z,993.01
2017-03-07T01:07:58.330Z,993.05
2017-03-07T01:08:56.398Z,992.96
2017-03-07T01:10:22.137Z,993.02
2017-03-07T01:11:57.065Z,993.11
2017-03-07T01:12:29.579Z,993.12
2017-03-07T01:12:59.887Z,993.08
2017-03-07T01:13:26.865Z,993.09
2017-03-07T01:13:51.518Z,993.12
2017-03-07T01:14:18.156Z,993.08
2017-03-07T01:14:47.445Z,993.16
2017-03-07T01:16:08.383Z,993.03
2017-03-07T01:16:42.490Z,993.04
2017-03-07T01:17:38.341Z,993.17
2017-03-07T01:18:02.902Z,993.12
2017-03-07T01:19:38.599Z,993.09
2017-03-07T01:20:09.687Z,993.12
2017-03-07T01:21:15.950Z,993.20
2017-03-07T01:22:22.139Z,993.21
2017-03-07T01:22:48.923Z,993.22
2017-03-07T01:23:13.602Z,993.13
2017-03-07T01:23:45.874Z,993.13
2017-03-07T01:26:43.289Z,993.12
2017-03-07T01:27:11.074Z,993.11
2017-03-07T01:28:24.169Z,993.07
2017-03-07T01:28:48.043Z,993.20
2017-03-07T01:29:19.393Z,993.12
2017-03-07T01:30:18.379Z,993.09
2017-03-07T01:30:45.047Z,993.12
2017-03-07T01:32:22.609Z,993.19
2017-03-07T01:33:21.033Z,993.22
2017-03-07T01:33:49.771Z,993.13
2017-03-07T01:35:42.913Z,993.19
2017-03-07T01:36:13.298Z,993.18
2017-03-07T01:36:40.419Z,993.24
2017-03-07T01:37:03.193Z,993.25
2017-03-07T01:38:02.633Z,993.17
2017-03-07T01:41:10.510Z,993.29
2017-03-07T01:41:37.355Z,993.34
2017-03-07T01:42:03.977Z,993.35
2017-03-07T01:43:06.580Z,993.33
2017-03-07T01:43:33.043Z,993.28
2017-03-07T01:43:54.737Z,993.33
2017-03-07T01:44:16.448Z,993.33
2017-03-07T01:44:43.019Z,993.32
2017-03-07T01:45:04.713Z,993.37
2017-03-07T01:45:26.502Z,993.30
2017-03-07T01:45:52.990Z,993.30
2017-03-07T01:46:14.837Z,993.32
2017-03-07T01:46:36.535Z,993.32
2017-03-07T01:47:29.485Z,993.35
2017-03-07T01:47:51.182Z,993.41
2017-03-07T01:48:12.989Z,993.33
2017-03-07T01:48:34.694Z,993.41
2017-03-07T01:48:56.488Z,993.37
2017-03-07T01:49:18.204Z,993.39
2017-03-07T01:49:40.001Z,993.33
2017-03-07T01:50:06.597Z,993.41
2017-03-07T01:50:28.287Z,993.43
2017-03-07T01:50:49.982Z,993.35
2017-03-07T01:51:16.465Z,993.39
2017-03-07T01:51:38.193Z,993.31
2017-03-07T01:52:40.698Z,993.32
2017-03-07T01:53:02.390Z,993.29
2017-03-07T01:54:00.683Z,993.42
2017-03-07T01:54:22.566Z,993.36
2017-03-07T01:54:44.265Z,993.35
2017-03-07T01:55:10.733Z,993.29
2017-03-07T01:55:32.435Z,993.33
2017-03-07T01:55:54.161Z,993.38
2017-03-07T01:56:15.966Z,993.39
2017-03-07T01:56:37.689Z,993.37
2017-03-07T01:57:30.635Z,993.33
2017-03-07T01:58:23.580Z,993.44
2017-03-07T01:58:45.386Z,993.46
2017-03-07T01:59:11.854Z,993.47
2017-03-07T01:59:33.563Z,993.41
2017-03-07T01:59:55.359Z,993.39
2017-03-07T02:00:48.319Z,993.41
2017-03-07T02:01:41.398Z,993.42
2017-03-07T02:02:07.877Z,993.44
2017-03-07T02:02:29.571Z,993.40
2017-03-07T02:02:56.046Z,993.45
2017-03-07T02:03:17.746Z,993.47
2017-03-07T02:03:39.553Z,993.46
2017-03-07T02:04:01.291Z,993.52
2017-03-07T02:04:22.984Z,993.49
2017-03-07T02:04:49.463Z,993.45
2017-03-07T02:05:11.162Z,993.46
2017-03-07T02:05:32.942Z,993.48
2017-03-07T02:05:54.745Z,993.50
2017-03-07T02:06:21.213Z,993.60
2017-03-07T02:06:42.943Z,993.52
2017-03-07T02:07:09.411Z,993.51
2017-03-07T02:07:31.200Z,993.50
2017-03-07T02:07:57.691Z,993.60
2017-03-07T02:08:19.381Z,993.56
2017-03-07T02:08:45.854Z,993.50
2017-03-07T02:09:07.551Z,993.57
2017-03-07T02:09:29.266Z,993.58
2017-03-07T02:10:22.296Z,993.59
2017-03-07T02:11:15.338Z,993.59
2017-03-07T02:11:41.915Z,993.58
2017-03-07T02:12:03.677Z,993.60
2017-03-07T02:12:30.124Z,993.65
2017-03-07T02:12:51.910Z,993.66
2017-03-07T02:13:18.382Z,993.57
2017-03-07T02:13:40.084Z,993.61
2017-03-07T02:14:43.306Z,993.68
2017-03-07T02:15:04.971Z,993.76
2017-03-07T02:15:26.684Z,993.70
2017-03-07T02:15:53.153Z,993.73
2017-03-07T02:16:14.939Z,993.72
2017-03-07T02:16:36.632Z,993.78
2017-03-07T02:17:29.604Z,993.74
2017-03-07T02:17:51.300Z,993.76
2017-03-07T02:18:44.251Z,993.72
2017-03-07T02:19:10.731Z,993.74
2017-03-07T02:19:32.463Z,993.78
2017-03-07T02:19:54.251Z,993.77
2017-03-07T02:20:20.729Z,993.95
2017-03-07T02:20:42.441Z,993.87
2017-03-07T02:21:09.053Z,993.85
2017-03-07T02:21:30.750Z,993.82
2017-03-07T02:22:38.028Z,993.98
2017-03-07T02:22:59.736Z,993.84
2017-03-07T02:23:21.437Z,993.90
2017-03-07T02:23:48.013Z,993.86
2017-03-07T02:24:09.818Z,993.90
2017-03-07T02:24:36.299Z,993.83
2017-03-07T02:24:57.993Z,993.93
2017-03-07T02:25:24.480Z,993.85
2017-03-07T02:25:46.174Z,993.73
2017-03-07T02:26:07.874Z,993.79
2017-03-07T02:26:29.656Z,993.78
2017-03-07T02:26:51.349Z,993.84
2017-03-07T02:27:13.078Z,993.89
2017-03-07T02:28:06.016Z,993.92
2017-03-07T02:28:27.745Z,993.82
2017-03-07T02:28:49.433Z,993.85
2017-03-07T02:29:11.128Z,993.81
2017-03-07T02:29:32.824Z,993.82
2017-03-07T02:29:59.303Z,993.83
2017-03-07T02:30:21.012Z,993.83
2017-03-07T02:30:42.706Z,993.85
2017-03-07T02:31:09.180Z,993.83
2017-03-07T02:31:30.891Z,993.93
2017-03-07T02:31:52.595Z,993.86
2017-03-07T02:32:19.183Z,993.82
2017-03-07T02:32:40.873Z,993.76
2017-03-07T02:33:07.350Z,993.76
2017-03-07T02:33:29.048Z,993.83
2017-03-07T02:33:55.611Z,993.87
2017-03-07T02:34:17.505Z,993.82
2017-03-07T02:34:43.973Z,993.90
2017-03-07T02:35:05.669Z,993.95
2017-03-07T02:35:27.371Z,993.90
2017-03-07T02:35:49.187Z,993.83
2017-03-07T02:36:10.882Z,993.87
2017-03-07T02:36:32.578Z,993.90
2017-03-07T02:37:25.550Z,993.89
2017-03-07T02:37:52.022Z,993.92
2017-03-07T02:38:13.733Z,993.86
2017-03-07T02:38:35.445Z,993.91
2017-03-07T02:39:42.722Z,993.87
2017-03-07T02:40:04.412Z,993.82
2017-03-07T02:40:30.895Z,993.97
2017-03-07T02:40:52.587Z,993.84
2017-03-07T02:41:14.296Z,993.83
2017-03-07T02:41:35.996Z,993.82
2017-03-07T02:41:57.693Z,993.90
2017-03-07T02:42:19.402Z,993.89
2017-03-07T02:42:41.133Z,993.89
2017-03-07T02:43:02.838Z,993.85
2017-03-07T02:43:29.312Z,993.82
2017-03-07T02:43:51.013Z,993.86
2017-03-07T02:44:12.717Z,993.83
2017-03-07T02:44:34.396Z,993.84
2017-03-07T02:44:56.095Z,993.87
2017-03-07T02:45:17.820Z,993.84
2017-03-07T02:45:49.064Z,993.84
2017-03-07T02:46:15.541Z,993.83
2017-03-07T02:46:37.238Z,993.87
2017-03-07T02:46:58.933Z,993.89
2017-03-07T02:47:25.428Z,994.00
2017-03-07T02:47:47.155Z,993.91
2017-03-07T02:48:13.626Z,993.94
2017-03-07T02:48:35.328Z,993.91
2017-03-07T02:49:01.802Z,993.93
2017-03-07T02:49:23.509Z,993.87
2017-03-07T02:49:45.219Z,993.91
2017-03-07T02:50:47.728Z,993.95
2017-03-07T02:51:09.432Z,993.91
2017-03-07T02:51:31.135Z,993.84
2017-03-07T02:51:52.857Z,993.92
2017-03-07T02:52:19.332Z,994.00
2017-03-07T02:52:41.027Z,993.99
2017-03-07T02:53:02.745Z,993.97
2017-03-07T02:53:55.699Z,993.95
2017-03-07T02:54:22.172Z,994.03
2017-03-07T02:54:43.874Z,993.99
2017-03-07T02:55:05.619Z,993.95
2017-03-07T02:56:04.000Z,993.99
2017-03-07T02:56:26.911Z,994.05
2017-03-07T02:57:29.444Z,993.95
2017-03-07T02:57:51.193Z,993.90
2017-03-07T02:58:13.946Z,993.92
2017-03-07T02:59:07.021Z,994.05
2017-03-07T03:00:14.317Z,994.06
2017-03-07T03:00:36.076Z,994.07
2017-03-07T03:01:43.481Z,994.04
2017-03-07T03:02:05.204Z,994.09
2017-03-07T03:03:12.499Z,994.09
2017-03-07T03:03:36.896Z,994.07
2017-03-07T03:05:10.678Z,994.11
2017-03-07T03:06:44.500Z,994.05
2017-03-07T03:07:51.792Z,994.03
2017-03-07T03:08:13.563Z,994.12
2017-03-07T03:09:20.949Z,994.22
2017-03-07T03:09:42.694Z,994.15
2017-03-07T03:10:45.974Z,994.13
2017-03-07T03:11:07.746Z,994.24
2017-03-07T03:11:34.370Z,994.16
2017-03-07T03:11:56.131Z,994.16
2017-03-07T03:13:29.958Z,994.17
2017-03-07T03:13:56.473Z,994.21
2017-03-07T03:14:18.185Z,994.22
2017-03-07T03:14:39.916Z,994.27
2017-03-07T03:15:01.638Z,994.21
2017-03-07T03:15:23.504Z,994.17
2017-03-07T03:15:45.206Z,994.22
2017-03-07T03:16:11.794Z,994.22
2017-03-07T03:16:33.753Z,994.18
2017-03-07T03:17:26.727Z,994.25
2017-03-07T03:17:48.446Z,994.26
2017-03-07T03:18:10.243Z,994.34
2017-03-07T03:18:32.107Z,994.31
2017-03-07T03:19:01.035Z,994.25
2017-03-07T03:19:22.831Z,994.26
2017-03-07T03:20:28.687Z,994.34
2017-03-07T03:20:50.466Z,994.27
2017-03-07T03:21:12.227Z,994.26
2017-03-07T03:21:38.754Z,994.34
2017-03-07T03:22:00.474Z,994.28
2017-03-07T03:22:22.203Z,994.22
2017-03-07T03:22:48.674Z,994.32
2017-03-07T03:23:17.818Z,994.41
2017-03-07T03:23:39.560Z,994.25
2017-03-07T03:24:47.471Z,994.40
2017-03-07T03:25:09.206Z,994.29
2017-03-07T03:25:35.890Z,994.32
2017-03-07T03:25:57.593Z,994.37
2017-03-07T03:26:24.083Z,994.47
2017-03-07T03:26:45.801Z,994.42
2017-03-07T03:27:07.522Z,994.41
2017-03-07T03:27:34.054Z,994.33
2017-03-07T03:27:55.783Z,994.33
2017-03-07T03:28:17.580Z,994.39
2017-03-07T03:28:42.373Z,994.37
2017-03-07T03:29:40.780Z,994.37
2017-03-07T03:30:02.515Z,994.41
2017-03-07T03:30:55.509Z,994.42
2017-03-07T03:31:17.253Z,994.45
2017-03-07T03:31:38.976Z,994.39
2017-03-07T03:32:00.701Z,994.38
2017-03-07T03:32:22.437Z,994.40
2017-03-07T03:33:15.452Z,994.43
2017-03-07T03:33:37.196Z,994.40
2017-03-07T03:34:30.167Z,994.48
2017-03-07T03:35:23.217Z,994.39
2017-03-07T03:36:16.227Z,994.43
2017-03-07T03:37:09.376Z,994.48
2017-03-07T03:37:35.994Z,994.48
2017-03-07T03:37:57.824Z,994.51
2017-03-07T03:38:56.150Z,994.50
2017-03-07T03:39:17.880Z,994.50
2017-03-07T03:40:10.892Z,994.48
2017-03-07T03:40:32.601Z,994.52
2017-03-07T03:40:59.106Z,994.68
2017-03-07T03:41:20.867Z,994.64
2017-03-07T03:41:42.607Z,994.56
2017-03-07T03:42:09.098Z,994.62
2017-03-07T03:42:30.941Z,994.54
2017-03-07T03:42:52.703Z,994.51
2017-03-07T03:43:45.708Z,994.67
2017-03-07T03:44:38.704Z,994.67
2017-03-07T03:45:09.972Z,994.61
2017-03-07T03:45:31.679Z,994.63
2017-03-07T03:46:24.659Z,994.64
2017-03-07T03:46:46.383Z,994.72
2017-03-07T03:47:12.903Z,994.69
2017-03-07T03:47:34.686Z,994.70
2017-03-07T03:47:56.413Z,994.71
2017-03-07T03:48:22.883Z,994.72
2017-03-07T03:48:44.626Z,994.67
2017-03-07T03:49:11.131Z,994.64
2017-03-07T03:49:32.879Z,994.70
2017-03-07T03:49:59.373Z,994.69
2017-03-07T03:50:21.222Z,994.72
2017-03-07T03:50:47.711Z,994.76
2017-03-07T03:51:09.557Z,994.76
2017-03-07T03:51:36.087Z,994.80
2017-03-07T03:52:00.082Z,994.75
2017-03-07T03:53:33.888Z,994.81
2017-03-07T03:54:26.870Z,994.79
2017-03-07T03:55:19.847Z,994.77
2017-03-07T03:55:41.578Z,994.81
2017-03-07T03:56:08.061Z,994.77
2017-03-07T03:56:29.767Z,994.76
2017-03-07T03:56:58.571Z,994.83
2017-03-07T03:57:20.306Z,994.84
2017-03-07T03:58:13.283Z,994.77
2017-03-07T03:58:35.042Z,994.75
2017-03-07T03:59:01.527Z,994.77
2017-03-07T03:59:23.220Z,994.87
2017-03-07T04:00:16.511Z,994.77
2017-03-07T04:01:12.127Z,994.74
2017-03-07T04:02:05.185Z,994.76
2017-03-07T04:02:58.195Z,994.78
2017-03-07T04:03:51.271Z,994.75
2017-03-07T04:04:54.516Z,994.86
2017-03-07T04:05:16.205Z,994.82
2017-03-07T04:05:37.935Z,994.80
2017-03-07T04:05:59.638Z,994.79
2017-03-07T04:06:21.455Z,994.82
2017-03-07T04:07:24.025Z,994.89
2017-03-07T04:07:45.793Z,994.88
2017-03-07T04:08:07.542Z,994.90
2017-03-07T04:08:29.284Z,994.90
2017-03-07T04:08:51.046Z,994.94
2017-03-07T04:09:12.783Z,994.95
2017-03-07T04:09:34.527Z,994.93
2017-03-07T04:09:56.281Z,994.87
2017-03-07T04:10:18.014Z,994.93
2017-03-07T04:10:39.746Z,994.96
2017-03-07T04:11:01.488Z,994.94
2017-03-07T04:11:23.241Z,994.94
2017-03-07T04:11:44.982Z,994.97
2017-03-07T04:12:06.756Z,994.91
2017-03-07T04:12:28.548Z,994.95
2017-03-07T04:12:50.339Z,995.02
2017-03-07T04:13:12.097Z,994.97
2017-03-07T04:13:33.881Z,994.92
2017-03-07T04:13:55.616Z,995.02
2017-03-07T04:14:17.383Z,995.00
2017-03-07T04:14:39.132Z,995.01
2017-03-07T04:15:00.932Z,995.00
2017-03-07T04:15:22.649Z,995.01
2017-03-07T04:15:44.400Z,994.97
2017-03-07T04:16:06.147Z,995.04
2017-03-07T04:16:27.889Z,995.03
2017-03-07T04:16:49.660Z,995.03
2017-03-07T04:17:11.437Z,995.03
2017-03-07T04:17:33.224Z,995.16
2017-03-07T04:17:54.956Z,995.12
2017-03-07T04:18:16.716Z,995.04
2017-03-07T04:18:38.470Z,995.04
2017-03-07T04:19:00.233Z,995.06
2017-03-07T04:19:21.946Z,995.05
2017-03-07T04:19:43.709Z,995.11
2017-03-07T04:20:05.400Z,995.09
2017-03-07T04:20:27.181Z,995.09
2017-03-07T04:20:48.913Z,995.14
2017-03-07T04:21:15.439Z,995.20
2017-03-07T04:22:14.150Z,995.10
2017-03-07T04:22:40.524Z,995.07
2017-03-07T04:23:02.266Z,995.07
2017-03-07T04:24:05.403Z,995.17
2017-03-07T04:24:27.156Z,995.12
2017-03-07T04:25:20.271Z,995.17
2017-03-07T04:25:46.799Z,995.15
2017-03-07T04:26:08.546Z,995.16
2017-03-07T04:27:11.692Z,995.20
2017-03-07T04:27:33.476Z,995.21
2017-03-07T04:28:36.080Z,995.13
2017-03-07T04:28:57.842Z,995.18
2017-03-07T04:29:19.605Z,995.19
2017-03-07T04:29:41.331Z,995.22
2017-03-07T04:30:03.097Z,995.22
2017-03-07T04:30:56.122Z,995.30
2017-03-07T04:31:49.161Z,995.28
2017-03-07T04:32:42.233Z,995.25
2017-03-07T04:33:35.283Z,995.25
2017-03-07T04:34:28.333Z,995.25
2017-03-07T04:34:55.844Z,995.39
2017-03-07T04:35:17.576Z,995.27
2017-03-07T04:35:44.098Z,995.27
2017-03-07T04:36:05.850Z,995.19
2017-03-07T04:36:32.370Z,995.28
2017-03-07T04:36:54.353Z,995.27
2017-03-07T04:37:16.133Z,995.37
2017-03-07T04:37:37.900Z,995.35
2017-03-07T04:37:59.702Z,995.33
2017-03-07T04:38:21.458Z,995.30
2017-03-07T04:38:43.240Z,995.28
2017-03-07T04:39:45.756Z,995.31
2017-03-07T04:40:07.516Z,995.28
2017-03-07T04:40:29.262Z,995.27
2017-03-07T04:40:50.999Z,995.30
2017-03-07T04:41:12.733Z,995.31
2017-03-07T04:41:34.467Z,995.34
2017-03-07T04:41:56.216Z,995.38
2017-03-07T04:42:17.925Z,995.35
2017-03-07T04:42:39.680Z,995.29
2017-03-07T04:43:42.233Z,995.30
2017-03-07T04:44:03.968Z,995.27
2017-03-07T04:44:25.679Z,995.28
2017-03-07T04:44:47.410Z,995.36
2017-03-07T04:45:09.116Z,995.38
2017-03-07T04:45:30.844Z,995.37
2017-03-07T04:45:52.547Z,995.33
2017-03-07T04:46:14.263Z,995.39
2017-03-07T04:47:18.355Z,995.32
2017-03-07T04:47:40.089Z,995.39
2017-03-07T04:48:47.420Z,995.36
2017-03-07T04:49:09.132Z,995.42
2017-03-07T04:49:30.851Z,995.43
2017-03-07T04:49:52.575Z,995.42
2017-03-07T04:50:14.277Z,995.43
2017-03-07T04:50:35.974Z,995.42
2017-03-07T04:50:57.731Z,995.43
2017-03-07T04:51:19.500Z,995.42
2017-03-07T04:51:41.215Z,995.41
2017-03-07T04:52:02.942Z,995.41
2017-03-07T04:52:24.666Z,995.38
2017-03-07T04:52:46.377Z,995.36
2017-03-07T04:53:10.214Z,995.38
2017-03-07T04:53:31.816Z,995.40
2017-03-07T04:53:53.569Z,995.48
2017-03-07T04:54:15.271Z,995.42
2017-03-07T04:54:37.021Z,995.44
2017-03-07T04:54:58.734Z,995.42
2017-03-07T04:55:20.559Z,995.43
2017-03-07T04:55:42.243Z,995.45
2017-03-07T04:56:03.964Z,995.46
2017-03-07T04:56:25.677Z,995.39
2017-03-07T04:56:47.396Z,995.34
2017-03-07T04:57:41.383Z,995.45
2017-03-07T04:58:03.188Z,995.48
2017-03-07T04:58:24.884Z,995.44
2017-03-07T04:58:46.611Z,995.50
2017-03-07T04:59:08.358Z,995.49
2017-03-07T04:59:30.111Z,995.49
2017-03-07T05:00:23.151Z,995.40
2017-03-07T05:00:44.901Z,995.43
2017-03-07T05:01:06.656Z,995.44
2017-03-07T05:01:28.391Z,995.52
2017-03-07T05:01:50.158Z,995.45
2017-03-07T05:02:21.465Z,995.53
2017-03-07T05:02:43.206Z,995.55
2017-03-07T05:03:36.290Z,995.48
2017-03-07T05:04:29.435Z,995.52
2017-03-07T05:04:55.941Z,995.53
2017-03-07T05:05:17.651Z,995.53
2017-03-07T05:05:39.352Z,995.48
2017-03-07T05:06:01.062Z,995.46
2017-03-07T05:06:22.758Z,995.47
2017-03-07T05:06:44.460Z,995.48
2017-03-07T05:07:06.214Z,995.56
2017-03-07T05:07:27.951Z,995.60
2017-03-07T05:07:49.702Z,995.53
2017-03-07T05:08:11.443Z,995.57
2017-03-07T05:09:09.234Z,995.52
2017-03-07T05:09:31.035Z,995.63
2017-03-07T05:09:57.536Z,995.63
2017-03-07T05:10:19.290Z,995.63
2017-03-07T05:10:41.046Z,995.55
2017-03-07T05:11:02.787Z,995.61
2017-03-07T05:11:24.541Z,995.65
2017-03-07T05:11:46.321Z,995.55
2017-03-07T05:12:08.148Z,995.57
2017-03-07T05:13:10.697Z,995.62
2017-03-07T05:13:37.284Z,995.62
2017-03-07T05:13:59.042Z,995.64
2017-03-07T05:15:01.562Z,995.72
2017-03-07T05:15:23.293Z,995.65
2017-03-07T05:15:45.065Z,995.60
2017-03-07T05:16:06.802Z,995.68
2017-03-07T05:16:28.571Z,995.68
2017-03-07T05:16:50.427Z,995.63
2017-03-07T05:17:12.167Z,995.69
2017-03-07T05:17:33.903Z,995.65
2017-03-07T05:17:55.655Z,995.62
2017-03-07T05:18:17.461Z,995.61
2017-03-07T05:18:39.241Z,995.65
2017-03-07T05:19:01.024Z,995.67
2017-03-07T05:20:08.337Z,995.61
2017-03-07T05:20:30.151Z,995.64
2017-03-07T05:20:51.878Z,995.61
2017-03-07T05:21:44.838Z,995.66
2017-03-07T05:22:11.318Z,995.63
2017-03-07T05:22:33.024Z,995.62
2017-03-07T05:23:25.980Z,995.70
2017-03-07T05:24:24.361Z,995.66
2017-03-07T05:24:46.052Z,995.60
2017-03-07T05:25:07.760Z,995.61
2017-03-07T05:25:34.236Z,995.63
2017-03-07T05:25:55.935Z,995.65
2017-03-07T05:26:22.521Z,995.59
2017-03-07T05:26:44.213Z,995.66
2017-03-07T05:27:10.694Z,995.70
2017-03-07T05:27:32.394Z,995.69
2017-03-07T05:28:34.918Z,995.69
2017-03-07T05:29:01.392Z,995.66
2017-03-07T05:29:23.089Z,995.65
2017-03-07T05:29:49.586Z,995.66
2017-03-07T05:30:11.311Z,995.67
2017-03-07T05:30:33.040Z,995.69
2017-03-07T05:31:26.006Z,995.73
2017-03-07T05:32:29.099Z,995.78
2017-03-07T05:32:50.922Z,995.73
2017-03-07T05:33:12.633Z,995.74
2017-03-07T05:34:05.588Z,995.77
2017-03-07T05:35:08.653Z,995.80
2017-03-07T05:35:30.347Z,995.78
2017-03-07T05:35:52.064Z,995.81
2017-03-07T05:36:13.782Z,995.77
2017-03-07T05:36:35.488Z,995.72
2017-03-07T05:36:57.201Z,995.76
2017-03-07T05:37:18.906Z,995.78
2017-03-07T05:37:40.596Z,995.78
2017-03-07T05:38:02.329Z,995.80
2017-03-07T05:38:55.284Z,995.87
2017-03-07T05:39:48.239Z,995.80
2017-03-07T05:40:09.948Z,995.86
2017-03-07T05:40:36.434Z,995.89
2017-03-07T05:40:58.148Z,995.97
2017-03-07T05:41:19.851Z,995.98
2017-03-07T05:42:12.798Z,995.89
2017-03-07T05:42:39.273Z,995.89
2017-03-07T05:43:00.982Z,995.97
2017-03-07T05:43:22.688Z,995.99
2017-03-07T05:43:44.394Z,995.93
2017-03-07T05:44:06.096Z,995.89
2017-03-07T05:44:27.814Z,995.94
2017-03-07T05:44:49.524Z,995.94
2017-03-07T05:45:11.220Z,996.01
2017-03-07T05:46:18.500Z,995.86
2017-03-07T05:46:40.196Z,995.86
2017-03-07T05:47:47.473Z,995.88
2017-03-07T05:48:09.200Z,995.92
2017-03-07T05:48:35.686Z,995.96
2017-03-07T05:48:57.391Z,995.94
2017-03-07T05:50:00.470Z,995.97
2017-03-07T05:50:22.162Z,996.03
2017-03-07T05:50:48.633Z,996.00
2017-03-07T05:51:10.329Z,996.00
2017-03-07T05:51:36.801Z,996.02
2017-03-07T05:51:58.515Z,996.04
2017-03-07T05:52:24.988Z,996.06
2017-03-07T05:52:46.688Z,996.02
2017-03-07T05:53:13.170Z,996.04
2017-03-07T05:53:34.874Z,996.04
2017-03-07T05:53:56.595Z,996.03
2017-03-07T05:54:18.337Z,996.04
2017-03-07T05:55:11.285Z,996.08
2017-03-07T05:55:37.767Z,996.11
2017-03-07T05:55:59.475Z,996.07
2017-03-07T05:56:25.967Z,995.98
2017-03-07T05:56:47.679Z,996.11
2017-03-07T05:57:14.145Z,996.12
2017-03-07T05:57:35.846Z,996.09
2017-03-07T05:58:02.320Z,996.17
2017-03-07T05:58:24.054Z,996.05
2017-03-07T05:58:50.535Z,996.10
2017-03-07T05:59:12.278Z,996.09
2017-03-07T05:59:33.977Z,996.14
2017-03-07T05:59:55.682Z,996.19
2017-03-07T06:00:17.487Z,996.17
2017-03-07T06:00:39.201Z,996.17
2017-03-07T06:01:32.166Z,996.14
2017-03-07T06:01:58.643Z,996.14
2017-03-07T06:02:20.351Z,996.20
2017-03-07T06:02:46.832Z,996.16
2017-03-07T06:03:08.540Z,996.05
2017-03-07T06:03:30.268Z,996.13
2017-03-07T06:03:51.971Z,996.16
2017-03-07T06:04:13.700Z,996.18
2017-03-07T06:04:40.183Z,996.23
2017-03-07T06:05:01.902Z,996.19
2017-03-07T06:05:28.380Z,996.28
2017-03-07T06:05:50.098Z,996.21
2017-03-07T06:06:11.827Z,996.22
2017-03-07T06:07:45.580Z,996.26
2017-03-07T06:08:07.279Z,996.26
2017-03-07T06:08:28.990Z,996.29
2017-03-07T06:08:50.706Z,996.30
2017-03-07T06:09:12.425Z,996.21
2017-03-07T06:09:38.903Z,996.17
2017-03-07T06:10:00.680Z,996.26
2017-03-07T06:10:22.377Z,996.21
2017-03-07T06:11:20.684Z,996.21
2017-03-07T06:11:42.390Z,996.31
2017-03-07T06:12:08.863Z,996.24
2017-03-07T06:12:30.572Z,996.27
2017-03-07T06:12:57.052Z,996.36
2017-03-07T06:13:18.771Z,996.33
2017-03-07T06:13:40.506Z,996.37
2017-03-07T06:14:06.992Z,996.29
2017-03-07T06:14:28.729Z,996.32
2017-03-07T06:14:55.215Z,996.40
2017-03-07T06:15:16.934Z,996.31
2017-03-07T06:15:43.406Z,996.37
2017-03-07T06:16:05.118Z,996.39
2017-03-07T06:16:26.824Z,996.39
2017-03-07T06:16:53.306Z,996.42
2017-03-07T06:17:56.396Z,996.25
2017-03-07T06:18:18.196Z,996.30
2017-03-07T06:18:39.939Z,996.28
2017-03-07T06:19:32.890Z,996.38
2017-03-07T06:19:54.756Z,996.40
2017-03-07T06:20:21.363Z,996.45
2017-03-07T06:20:43.100Z,996.44
2017-03-07T06:21:04.924Z,996.41
2017-03-07T06:21:58.897Z,996.39
2017-03-07T06:23:32.744Z,996.47
2017-03-07T06:23:54.566Z,996.47
2017-03-07T06:24:21.052Z,996.46
2017-03-07T06:24:42.756Z,996.48
2017-03-07T06:25:04.483Z,996.45
2017-03-07T06:25:57.457Z,996.52
2017-03-07T06:26:19.170Z,996.44
2017-03-07T06:27:12.173Z,996.60
2017-03-07T06:28:15.596Z,996.51
2017-03-07T06:28:37.286Z,996.54
2017-03-07T06:29:30.243Z,996.57
2017-03-07T06:30:23.187Z,996.51
2017-03-07T06:30:49.773Z,996.62
2017-03-07T06:31:11.566Z,996.65
2017-03-07T06:32:04.634Z,996.61
2017-03-07T06:32:57.605Z,996.47
2017-03-07T06:33:19.430Z,996.52
2017-03-07T06:33:41.343Z,996.57
2017-03-07T06:34:03.075Z,996.58
2017-03-07T06:34:24.891Z,996.61
2017-03-07T06:34:51.383Z,996.57
2017-03-07T06:35:13.092Z,996.59
2017-03-07T06:35:34.804Z,996.55
2017-03-07T06:36:27.891Z,996.63
2017-03-07T06:37:35.144Z,996.79
2017-03-07T06:37:56.847Z,996.67
2017-03-07T06:38:23.433Z,996.53
2017-03-07T06:38:45.127Z,996.59
2017-03-07T06:39:06.861Z,996.63
2017-03-07T06:40:05.180Z,996.69
2017-03-07T06:40:26.979Z,996.67
2017-03-07T06:40:48.684Z,996.65
2017-03-07T06:41:15.257Z,996.65
2017-03-07T06:41:37.040Z,996.73
2017-03-07T06:41:58.749Z,996.72
2017-03-07T06:42:20.458Z,996.69
2017-03-07T06:42:42.153Z,996.70
2017-03-07T06:43:08.733Z,996.69
2017-03-07T06:43:30.454Z,996.69
2017-03-07T06:43:52.166Z,996.76
2017-03-07T06:44:18.646Z,996.75
2017-03-07T06:44:40.348Z,996.69